sensor_id;sensor_type;location;lat;lon;timestamp;P1;durP1;ratioP1;P2;durP2;ratioP2
42084;SDS011;27746;52.228;20.890;2024-02-21T00:01:06;14.57;;;6.22;;
42084;SDS011;27746;52.228;20.890;2024-02-21T00:03:33;22.13;;;6.20;;
42084;SDS011;27746;52.228;20.890;2024-02-21T00:06:00;19.13;;;6.13;;
42084;SDS011;27746;52.228;20.890;2024-02-21T00:08:27;17.63;;;6.80;;
42084;SDS011;27746;52.228;20.890;2024-02-21T00:10:54;14.32;;;5.50;;
42084;SDS011;27746;52.228;20.890;2024-02-21T00:13:22;26.80;;;7.07;;
42084;SDS011;27746;52.228;20.890;2024-02-21T00:15:49;18.27;;;6.40;;
42084;SDS011;27746;52.228;20.890;2024-02-21T00:18:16;18.65;;;6.45;;
42084;SDS011;27746;52.228;20.890;2024-02-21T00:20:43;21.20;;;6.05;;
42084;SDS011;27746;52.228;20.890;2024-02-21T00:23:10;16.15;;;6.40;;
42084;SDS011;27746;52.228;20.890;2024-02-21T00:25:36;14.75;;;6.25;;
42084;SDS011;27746;52.228;20.890;2024-02-21T00:28:04;15.90;;;7.10;;
42084;SDS011;27746;52.228;20.890;2024-02-21T00:30:33;15.00;;;6.20;;
42084;SDS011;27746;52.228;20.890;2024-02-21T00:33:00;11.95;;;5.50;;
42084;SDS011;27746;52.228;20.890;2024-02-21T00:35:27;18.08;;;6.55;;
42084;SDS011;27746;52.228;20.890;2024-02-21T00:37:53;15.57;;;6.13;;
42084;SDS011;27746;52.228;20.890;2024-02-21T00:40:22;18.90;;;6.70;;
42084;SDS011;27746;52.228;20.890;2024-02-21T00:42:49;19.50;;;6.35;;
42084;SDS011;27746;52.228;20.890;2024-02-21T00:45:15;17.92;;;6.40;;
42084;SDS011;27746;52.228;20.890;2024-02-21T00:47:44;14.45;;;7.03;;
42084;SDS011;27746;52.228;20.890;2024-02-21T00:50:11;14.98;;;5.80;;
42084;SDS011;27746;52.228;20.890;2024-02-21T00:52:38;15.10;;;6.07;;
42084;SDS011;27746;52.228;20.890;2024-02-21T00:55:05;15.32;;;6.30;;
42084;SDS011;27746;52.228;20.890;2024-02-21T00:57:32;19.50;;;6.80;;
42084;SDS011;27746;52.228;20.890;2024-02-21T00:59:59;15.30;;;5.95;;
42084;SDS011;27746;52.228;20.890;2024-02-21T01:02:26;19.33;;;6.60;;
42084;SDS011;27746;52.228;20.890;2024-02-21T01:04:54;18.65;;;7.10;;
42084;SDS011;27746;52.228;20.890;2024-02-21T01:07:21;22.33;;;6.28;;
42084;SDS011;27746;52.228;20.890;2024-02-21T01:09:48;15.00;;;6.55;;
42084;SDS011;27746;52.228;20.890;2024-02-21T01:12:16;19.52;;;6.68;;
42084;SDS011;27746;52.228;20.890;2024-02-21T01:14:43;21.95;;;6.78;;
42084;SDS011;27746;52.228;20.890;2024-02-21T01:17:11;16.48;;;6.65;;
42084;SDS011;27746;52.228;20.890;2024-02-21T01:19:38;21.42;;;7.60;;
42084;SDS011;27746;52.228;20.890;2024-02-21T01:22:06;17.85;;;7.03;;
42084;SDS011;27746;52.228;20.890;2024-02-21T01:24:33;19.08;;;6.13;;
42084;SDS011;27746;52.228;20.890;2024-02-21T01:27:00;21.17;;;6.22;;
42084;SDS011;27746;52.228;20.890;2024-02-21T01:29:26;18.30;;;7.40;;
42084;SDS011;27746;52.228;20.890;2024-02-21T01:31:53;20.55;;;6.63;;
42084;SDS011;27746;52.228;20.890;2024-02-21T01:34:20;16.33;;;7.40;;
42084;SDS011;27746;52.228;20.890;2024-02-21T01:36:47;20.42;;;7.25;;
42084;SDS011;27746;52.228;20.890;2024-02-21T01:39:15;19.88;;;8.25;;
42084;SDS011;27746;52.228;20.890;2024-02-21T01:41:42;18.63;;;8.32;;
42084;SDS011;27746;52.228;20.890;2024-02-21T01:44:09;15.95;;;7.53;;
42084;SDS011;27746;52.228;20.890;2024-02-21T01:46:38;20.77;;;7.97;;
42084;SDS011;27746;52.228;20.890;2024-02-21T01:49:05;18.65;;;8.23;;
42084;SDS011;27746;52.228;20.890;2024-02-21T01:51:36;21.63;;;7.88;;
42084;SDS011;27746;52.228;20.890;2024-02-21T01:54:04;22.90;;;8.65;;
42084;SDS011;27746;52.228;20.890;2024-02-21T01:56:32;22.15;;;8.45;;
42084;SDS011;27746;52.228;20.890;2024-02-21T01:59:00;20.10;;;7.50;;
42084;SDS011;27746;52.228;20.890;2024-02-21T02:01:27;21.58;;;8.20;;
42084;SDS011;27746;52.228;20.890;2024-02-21T02:03:55;20.50;;;7.53;;
42084;SDS011;27746;52.228;20.890;2024-02-21T02:06:23;19.08;;;8.02;;
42084;SDS011;27746;52.228;20.890;2024-02-21T02:08:50;18.55;;;7.88;;
42084;SDS011;27746;52.228;20.890;2024-02-21T02:11:17;21.25;;;7.60;;
42084;SDS011;27746;52.228;20.890;2024-02-21T02:13:46;18.20;;;8.15;;
42084;SDS011;27746;52.228;20.890;2024-02-21T02:16:13;16.83;;;7.22;;
42084;SDS011;27746;52.228;20.890;2024-02-21T02:18:40;17.80;;;7.65;;
42084;SDS011;27746;52.228;20.890;2024-02-21T02:21:10;17.15;;;6.43;;
42084;SDS011;27746;52.228;20.890;2024-02-21T02:23:42;17.73;;;7.10;;
42084;SDS011;27746;52.228;20.890;2024-02-21T02:26:10;16.48;;;7.28;;
42084;SDS011;27746;52.228;20.890;2024-02-21T02:28:37;21.48;;;8.57;;
42084;SDS011;27746;52.228;20.890;2024-02-21T02:31:04;16.38;;;7.07;;
42084;SDS011;27746;52.228;20.890;2024-02-21T02:33:32;19.27;;;6.85;;
42084;SDS011;27746;52.228;20.890;2024-02-21T02:35:59;20.98;;;8.07;;
42084;SDS011;27746;52.228;20.890;2024-02-21T02:38:25;18.70;;;7.63;;
42084;SDS011;27746;52.228;20.890;2024-02-21T02:40:54;18.42;;;7.22;;
42084;SDS011;27746;52.228;20.890;2024-02-21T02:43:20;16.25;;;7.38;;
42084;SDS011;27746;52.228;20.890;2024-02-21T02:45:47;20.15;;;8.00;;
42084;SDS011;27746;52.228;20.890;2024-02-21T02:48:14;16.42;;;7.97;;
42084;SDS011;27746;52.228;20.890;2024-02-21T02:50:41;23.38;;;8.43;;
42084;SDS011;27746;52.228;20.890;2024-02-21T02:53:08;24.98;;;9.07;;
42084;SDS011;27746;52.228;20.890;2024-02-21T02:55:38;18.30;;;8.88;;
42084;SDS011;27746;52.228;20.890;2024-02-21T02:58:08;16.23;;;8.98;;
42084;SDS011;27746;52.228;20.890;2024-02-21T03:00:35;19.85;;;9.02;;
42084;SDS011;27746;52.228;20.890;2024-02-21T03:03:05;25.48;;;11.25;;
42084;SDS011;27746;52.228;20.890;2024-02-21T03:05:33;21.27;;;8.80;;
42084;SDS011;27746;52.228;20.890;2024-02-21T03:08:00;21.48;;;9.30;;
42084;SDS011;27746;52.228;20.890;2024-02-21T03:10:32;18.20;;;7.53;;
42084;SDS011;27746;52.228;20.890;2024-02-21T03:12:58;21.50;;;8.82;;
42084;SDS011;27746;52.228;20.890;2024-02-21T03:15:27;16.20;;;8.40;;
42084;SDS011;27746;52.228;20.890;2024-02-21T03:17:54;24.75;;;9.30;;
42084;SDS011;27746;52.228;20.890;2024-02-21T03:20:22;22.38;;;8.77;;
42084;SDS011;27746;52.228;20.890;2024-02-21T03:22:48;18.45;;;8.95;;
42084;SDS011;27746;52.228;20.890;2024-02-21T03:25:16;22.73;;;10.35;;
42084;SDS011;27746;52.228;20.890;2024-02-21T03:27:44;23.92;;;8.73;;
42084;SDS011;27746;52.228;20.890;2024-02-21T03:30:12;18.65;;;9.40;;
42084;SDS011;27746;52.228;20.890;2024-02-21T03:32:40;25.80;;;10.90;;
42084;SDS011;27746;52.228;20.890;2024-02-21T03:35:07;21.70;;;9.25;;
42084;SDS011;27746;52.228;20.890;2024-02-21T03:37:34;19.35;;;9.00;;
42084;SDS011;27746;52.228;20.890;2024-02-21T03:40:01;22.92;;;10.35;;
42084;SDS011;27746;52.228;20.890;2024-02-21T03:42:28;24.30;;;9.65;;
42084;SDS011;27746;52.228;20.890;2024-02-21T03:44:56;24.08;;;10.45;;
42084;SDS011;27746;52.228;20.890;2024-02-21T03:47:23;19.60;;;8.38;;
42084;SDS011;27746;52.228;20.890;2024-02-21T03:49:51;18.65;;;8.75;;
42084;SDS011;27746;52.228;20.890;2024-02-21T03:52:18;19.38;;;9.50;;
42084;SDS011;27746;52.228;20.890;2024-02-21T03:54:45;19.95;;;9.02;;
42084;SDS011;27746;52.228;20.890;2024-02-21T03:57:12;23.65;;;9.25;;
42084;SDS011;27746;52.228;20.890;2024-02-21T03:59:39;28.50;;;10.38;;
42084;SDS011;27746;52.228;20.890;2024-02-21T04:02:06;27.83;;;12.05;;
42084;SDS011;27746;52.228;20.890;2024-02-21T04:04:33;21.30;;;9.35;;
42084;SDS011;27746;52.228;20.890;2024-02-21T04:07:03;24.27;;;11.57;;
42084;SDS011;27746;52.228;20.890;2024-02-21T04:09:31;24.13;;;11.02;;
42084;SDS011;27746;52.228;20.890;2024-02-21T04:11:58;22.73;;;12.27;;
42084;SDS011;27746;52.228;20.890;2024-02-21T04:14:25;26.33;;;10.25;;
42084;SDS011;27746;52.228;20.890;2024-02-21T04:16:52;24.38;;;10.85;;
42084;SDS011;27746;52.228;20.890;2024-02-21T04:19:19;27.00;;;10.07;;
42084;SDS011;27746;52.228;20.890;2024-02-21T04:21:46;25.00;;;9.60;;
42084;SDS011;27746;52.228;20.890;2024-02-21T04:24:14;28.35;;;10.88;;
42084;SDS011;27746;52.228;20.890;2024-02-21T04:26:41;26.02;;;11.18;;
42084;SDS011;27746;52.228;20.890;2024-02-21T04:29:08;22.35;;;10.05;;
42084;SDS011;27746;52.228;20.890;2024-02-21T04:31:35;24.40;;;10.63;;
42084;SDS011;27746;52.228;20.890;2024-02-21T04:34:02;24.30;;;10.23;;
42084;SDS011;27746;52.228;20.890;2024-02-21T04:36:29;23.58;;;10.90;;
42084;SDS011;27746;52.228;20.890;2024-02-21T04:38:56;22.05;;;11.40;;
42084;SDS011;27746;52.228;20.890;2024-02-21T04:41:25;25.70;;;10.98;;
42084;SDS011;27746;52.228;20.890;2024-02-21T04:43:54;23.63;;;11.48;;
42084;SDS011;27746;52.228;20.890;2024-02-21T04:46:20;22.85;;;9.70;;
42084;SDS011;27746;52.228;20.890;2024-02-21T04:48:47;24.45;;;13.13;;
42084;SDS011;27746;52.228;20.890;2024-02-21T04:51:14;19.10;;;9.65;;
42084;SDS011;27746;52.228;20.890;2024-02-21T04:53:41;22.65;;;12.70;;
42084;SDS011;27746;52.228;20.890;2024-02-21T04:56:08;24.60;;;12.30;;
42084;SDS011;27746;52.228;20.890;2024-02-21T04:58:38;26.60;;;12.48;;
42084;SDS011;27746;52.228;20.890;2024-02-21T05:01:05;25.23;;;10.95;;
42084;SDS011;27746;52.228;20.890;2024-02-21T05:03:32;29.42;;;12.15;;
42084;SDS011;27746;52.228;20.890;2024-02-21T05:05:59;26.73;;;12.63;;
42084;SDS011;27746;52.228;20.890;2024-02-21T05:08:26;31.67;;;13.18;;
42084;SDS011;27746;52.228;20.890;2024-02-21T05:10:53;34.58;;;14.05;;
42084;SDS011;27746;52.228;20.890;2024-02-21T05:13:20;28.80;;;13.00;;
42084;SDS011;27746;52.228;20.890;2024-02-21T05:15:48;27.38;;;13.80;;
42084;SDS011;27746;52.228;20.890;2024-02-21T05:18:15;28.70;;;13.02;;
42084;SDS011;27746;52.228;20.890;2024-02-21T05:20:42;27.80;;;13.15;;
42084;SDS011;27746;52.228;20.890;2024-02-21T05:23:09;29.70;;;13.38;;
42084;SDS011;27746;52.228;20.890;2024-02-21T05:25:36;24.23;;;13.02;;
42084;SDS011;27746;52.228;20.890;2024-02-21T05:28:04;28.88;;;14.45;;
42084;SDS011;27746;52.228;20.890;2024-02-21T05:30:31;29.23;;;13.38;;
42084;SDS011;27746;52.228;20.890;2024-02-21T05:33:03;31.80;;;13.68;;
42084;SDS011;27746;52.228;20.890;2024-02-21T05:35:30;31.17;;;13.90;;
42084;SDS011;27746;52.228;20.890;2024-02-21T05:37:57;33.58;;;14.20;;
42084;SDS011;27746;52.228;20.890;2024-02-21T05:40:24;33.65;;;13.70;;
42084;SDS011;27746;52.228;20.890;2024-02-21T05:42:51;26.88;;;13.50;;
42084;SDS011;27746;52.228;20.890;2024-02-21T05:45:18;35.40;;;14.60;;
42084;SDS011;27746;52.228;20.890;2024-02-21T05:47:45;32.28;;;13.25;;
42084;SDS011;27746;52.228;20.890;2024-02-21T05:50:13;32.95;;;14.80;;
42084;SDS011;27746;52.228;20.890;2024-02-21T05:52:41;38.05;;;15.38;;
42084;SDS011;27746;52.228;20.890;2024-02-21T05:55:09;30.58;;;16.00;;
42084;SDS011;27746;52.228;20.890;2024-02-21T05:57:37;36.05;;;15.60;;
42084;SDS011;27746;52.228;20.890;2024-02-21T06:00:05;32.67;;;16.27;;
42084;SDS011;27746;52.228;20.890;2024-02-21T06:02:32;37.58;;;14.73;;
42084;SDS011;27746;52.228;20.890;2024-02-21T06:04:59;33.33;;;15.68;;
42084;SDS011;27746;52.228;20.890;2024-02-21T06:07:27;33.78;;;14.73;;
42084;SDS011;27746;52.228;20.890;2024-02-21T06:09:54;29.90;;;14.57;;
42084;SDS011;27746;52.228;20.890;2024-02-21T06:12:22;33.55;;;16.30;;
42084;SDS011;27746;52.228;20.890;2024-02-21T06:14:51;36.38;;;15.05;;
42084;SDS011;27746;52.228;20.890;2024-02-21T06:17:18;36.05;;;15.55;;
42084;SDS011;27746;52.228;20.890;2024-02-21T06:19:45;29.88;;;15.02;;
42084;SDS011;27746;52.228;20.890;2024-02-21T06:22:12;33.00;;;15.85;;
42084;SDS011;27746;52.228;20.890;2024-02-21T06:24:40;38.42;;;15.75;;
42084;SDS011;27746;52.228;20.890;2024-02-21T06:27:07;34.25;;;17.73;;
42084;SDS011;27746;52.228;20.890;2024-02-21T06:29:36;34.97;;;16.08;;
42084;SDS011;27746;52.228;20.890;2024-02-21T06:32:03;40.90;;;17.40;;
42084;SDS011;27746;52.228;20.890;2024-02-21T06:34:31;38.42;;;16.60;;
42084;SDS011;27746;52.228;20.890;2024-02-21T06:36:58;39.50;;;16.50;;
42084;SDS011;27746;52.228;20.890;2024-02-21T06:39:25;39.38;;;16.27;;
42084;SDS011;27746;52.228;20.890;2024-02-21T06:41:55;38.17;;;17.42;;
42084;SDS011;27746;52.228;20.890;2024-02-21T06:44:22;41.70;;;16.40;;
42084;SDS011;27746;52.228;20.890;2024-02-21T06:46:49;37.40;;;17.08;;
42084;SDS011;27746;52.228;20.890;2024-02-21T06:49:16;44.38;;;19.67;;
42084;SDS011;27746;52.228;20.890;2024-02-21T06:51:43;44.03;;;17.83;;
42084;SDS011;27746;52.228;20.890;2024-02-21T06:54:10;37.40;;;17.13;;
42084;SDS011;27746;52.228;20.890;2024-02-21T06:56:37;41.60;;;17.40;;
42084;SDS011;27746;52.228;20.890;2024-02-21T06:59:05;44.58;;;17.63;;
42084;SDS011;27746;52.228;20.890;2024-02-21T07:01:32;43.38;;;16.67;;
42084;SDS011;27746;52.228;20.890;2024-02-21T07:03:59;39.28;;;15.45;;
42084;SDS011;27746;52.228;20.890;2024-02-21T07:06:26;39.40;;;19.20;;
42084;SDS011;27746;52.228;20.890;2024-02-21T07:08:53;38.97;;;16.17;;
42084;SDS011;27746;52.228;20.890;2024-02-21T07:11:19;46.80;;;18.85;;
42084;SDS011;27746;52.228;20.890;2024-02-21T07:13:46;44.22;;;17.83;;
42084;SDS011;27746;52.228;20.890;2024-02-21T07:16:14;42.47;;;19.75;;
42084;SDS011;27746;52.228;20.890;2024-02-21T07:18:41;44.53;;;18.50;;
42084;SDS011;27746;52.228;20.890;2024-02-21T07:21:08;47.10;;;20.63;;
42084;SDS011;27746;52.228;20.890;2024-02-21T07:23:35;43.55;;;20.80;;
42084;SDS011;27746;52.228;20.890;2024-02-21T07:26:02;36.50;;;19.02;;
42084;SDS011;27746;52.228;20.890;2024-02-21T07:28:30;45.85;;;17.33;;
42084;SDS011;27746;52.228;20.890;2024-02-21T07:30:58;38.42;;;20.02;;
42084;SDS011;27746;52.228;20.890;2024-02-21T07:33:27;40.83;;;17.20;;
42084;SDS011;27746;52.228;20.890;2024-02-21T07:35:55;32.95;;;17.75;;
42084;SDS011;27746;52.228;20.890;2024-02-21T07:38:22;36.95;;;16.73;;
42084;SDS011;27746;52.228;20.890;2024-02-21T07:40:49;54.67;;;19.38;;
42084;SDS011;27746;52.228;20.890;2024-02-21T07:43:16;41.25;;;17.63;;
42084;SDS011;27746;52.228;20.890;2024-02-21T07:45:43;41.22;;;16.77;;
42084;SDS011;27746;52.228;20.890;2024-02-21T07:48:10;48.25;;;18.30;;
42084;SDS011;27746;52.228;20.890;2024-02-21T07:50:38;43.28;;;15.95;;
42084;SDS011;27746;52.228;20.890;2024-02-21T07:53:05;38.92;;;17.52;;
42084;SDS011;27746;52.228;20.890;2024-02-21T07:55:32;37.88;;;17.55;;
42084;SDS011;27746;52.228;20.890;2024-02-21T07:57:58;40.10;;;18.65;;
42084;SDS011;27746;52.228;20.890;2024-02-21T08:00:25;44.65;;;18.17;;
42084;SDS011;27746;52.228;20.890;2024-02-21T08:02:52;47.70;;;19.65;;
42084;SDS011;27746;52.228;20.890;2024-02-21T08:05:19;52.97;;;20.80;;
42084;SDS011;27746;52.228;20.890;2024-02-21T08:07:48;46.53;;;18.80;;
42084;SDS011;27746;52.228;20.890;2024-02-21T08:10:15;47.83;;;17.30;;
42084;SDS011;27746;52.228;20.890;2024-02-21T08:12:42;43.88;;;17.67;;
42084;SDS011;27746;52.228;20.890;2024-02-21T08:15:09;39.55;;;17.08;;
42084;SDS011;27746;52.228;20.890;2024-02-21T08:17:37;40.88;;;16.17;;
42084;SDS011;27746;52.228;20.890;2024-02-21T08:20:04;41.50;;;16.33;;
42084;SDS011;27746;52.228;20.890;2024-02-21T08:22:32;36.67;;;17.17;;
42084;SDS011;27746;52.228;20.890;2024-02-21T08:25:00;43.35;;;16.73;;
42084;SDS011;27746;52.228;20.890;2024-02-21T08:27:27;49.15;;;19.83;;
42084;SDS011;27746;52.228;20.890;2024-02-21T08:29:54;43.30;;;16.27;;
42084;SDS011;27746;52.228;20.890;2024-02-21T08:32:21;41.83;;;17.90;;
42084;SDS011;27746;52.228;20.890;2024-02-21T08:34:48;41.75;;;17.63;;
42084;SDS011;27746;52.228;20.890;2024-02-21T08:37:15;41.72;;;17.85;;
42084;SDS011;27746;52.228;20.890;2024-02-21T08:39:42;41.17;;;16.55;;
42084;SDS011;27746;52.228;20.890;2024-02-21T08:42:10;43.42;;;19.30;;
42084;SDS011;27746;52.228;20.890;2024-02-21T08:44:37;40.92;;;19.55;;
42084;SDS011;27746;52.228;20.890;2024-02-21T08:47:06;42.33;;;18.92;;
42084;SDS011;27746;52.228;20.890;2024-02-21T08:49:35;45.47;;;19.10;;
42084;SDS011;27746;52.228;20.890;2024-02-21T08:52:02;44.50;;;17.42;;
42084;SDS011;27746;52.228;20.890;2024-02-21T08:54:30;39.05;;;17.50;;
42084;SDS011;27746;52.228;20.890;2024-02-21T08:56:57;51.05;;;18.13;;
42084;SDS011;27746;52.228;20.890;2024-02-21T08:59:26;38.38;;;17.88;;
42084;SDS011;27746;52.228;20.890;2024-02-21T09:01:53;48.00;;;18.17;;
42084;SDS011;27746;52.228;20.890;2024-02-21T09:04:20;37.10;;;16.65;;
42084;SDS011;27746;52.228;20.890;2024-02-21T09:06:46;43.85;;;16.65;;
42084;SDS011;27746;52.228;20.890;2024-02-21T09:09:13;36.30;;;16.77;;
42084;SDS011;27746;52.228;20.890;2024-02-21T09:11:40;45.55;;;17.23;;
42084;SDS011;27746;52.228;20.890;2024-02-21T09:14:07;43.40;;;17.17;;
42084;SDS011;27746;52.228;20.890;2024-02-21T09:16:35;39.63;;;15.95;;
42084;SDS011;27746;52.228;20.890;2024-02-21T09:19:02;32.45;;;15.60;;
42084;SDS011;27746;52.228;20.890;2024-02-21T09:21:29;44.38;;;16.08;;
42084;SDS011;27746;52.228;20.890;2024-02-21T09:23:56;46.53;;;16.05;;
42084;SDS011;27746;52.228;20.890;2024-02-21T09:26:23;41.25;;;17.00;;
42084;SDS011;27746;52.228;20.890;2024-02-21T09:28:49;38.85;;;15.07;;
42084;SDS011;27746;52.228;20.890;2024-02-21T09:31:16;32.85;;;14.48;;
42084;SDS011;27746;52.228;20.890;2024-02-21T09:33:46;36.75;;;13.48;;
42084;SDS011;27746;52.228;20.890;2024-02-21T09:36:13;35.00;;;13.68;;
42084;SDS011;27746;52.228;20.890;2024-02-21T09:38:40;41.15;;;15.40;;
42084;SDS011;27746;52.228;20.890;2024-02-21T09:41:11;36.53;;;12.95;;
42084;SDS011;27746;52.228;20.890;2024-02-21T09:43:42;35.65;;;13.68;;
42084;SDS011;27746;52.228;20.890;2024-02-21T09:46:12;33.97;;;14.43;;
42084;SDS011;27746;52.228;20.890;2024-02-21T09:48:49;38.47;;;13.55;;
42084;SDS011;27746;52.228;20.890;2024-02-21T09:51:30;28.02;;;12.07;;
42084;SDS011;27746;52.228;20.890;2024-02-21T09:54:00;36.95;;;13.07;;
42084;SDS011;27746;52.228;20.890;2024-02-21T09:56:32;35.45;;;12.43;;
42084;SDS011;27746;52.228;20.890;2024-02-21T09:58:59;27.13;;;12.82;;
42084;SDS011;27746;52.228;20.890;2024-02-21T10:01:29;31.92;;;11.73;;
42084;SDS011;27746;52.228;20.890;2024-02-21T10:03:58;32.28;;;11.45;;
42084;SDS011;27746;52.228;20.890;2024-02-21T10:06:25;29.08;;;12.00;;
42084;SDS011;27746;52.228;20.890;2024-02-21T10:08:52;26.45;;;12.05;;
42084;SDS011;27746;52.228;20.890;2024-02-21T10:11:22;31.80;;;12.25;;
42084;SDS011;27746;52.228;20.890;2024-02-21T10:13:49;40.00;;;13.93;;
42084;SDS011;27746;52.228;20.890;2024-02-21T10:16:16;32.40;;;11.35;;
42084;SDS011;27746;52.228;20.890;2024-02-21T10:18:43;26.67;;;11.02;;
42084;SDS011;27746;52.228;20.890;2024-02-21T10:21:11;27.73;;;11.90;;
42084;SDS011;27746;52.228;20.890;2024-02-21T10:23:44;26.83;;;11.38;;
42084;SDS011;27746;52.228;20.890;2024-02-21T10:26:12;32.35;;;11.70;;
42084;SDS011;27746;52.228;20.890;2024-02-21T10:28:40;35.10;;;12.45;;
42084;SDS011;27746;52.228;20.890;2024-02-21T10:31:10;30.70;;;12.38;;
42084;SDS011;27746;52.228;20.890;2024-02-21T10:33:37;30.02;;;12.65;;
42084;SDS011;27746;52.228;20.890;2024-02-21T10:36:07;28.40;;;11.48;;
42084;SDS011;27746;52.228;20.890;2024-02-21T10:38:37;34.15;;;12.95;;
42084;SDS011;27746;52.228;20.890;2024-02-21T10:41:04;32.25;;;12.95;;
42084;SDS011;27746;52.228;20.890;2024-02-21T10:43:39;33.25;;;13.98;;
42084;SDS011;27746;52.228;20.890;2024-02-21T10:46:07;27.25;;;12.60;;
42084;SDS011;27746;52.228;20.890;2024-02-21T10:48:38;29.50;;;13.05;;
42084;SDS011;27746;52.228;20.890;2024-02-21T10:51:11;29.30;;;13.98;;
42084;SDS011;27746;52.228;20.890;2024-02-21T10:53:47;30.05;;;13.55;;
42084;SDS011;27746;52.228;20.890;2024-02-21T10:56:22;29.42;;;13.35;;
42084;SDS011;27746;52.228;20.890;2024-02-21T10:58:54;35.75;;;14.77;;
42084;SDS011;27746;52.228;20.890;2024-02-21T11:01:22;34.00;;;15.15;;
42084;SDS011;27746;52.228;20.890;2024-02-21T11:03:52;36.60;;;15.65;;
42084;SDS011;27746;52.228;20.890;2024-02-21T11:06:21;37.88;;;14.75;;
42084;SDS011;27746;52.228;20.890;2024-02-21T11:09:00;28.17;;;13.27;;
42084;SDS011;27746;52.228;20.890;2024-02-21T11:11:28;35.42;;;14.50;;
42084;SDS011;27746;52.228;20.890;2024-02-21T11:14:03;36.70;;;15.88;;
42084;SDS011;27746;52.228;20.890;2024-02-21T11:16:34;33.00;;;15.32;;
42084;SDS011;27746;52.228;20.890;2024-02-21T11:19:06;35.03;;;15.07;;
42084;SDS011;27746;52.228;20.890;2024-02-21T11:21:34;31.38;;;15.70;;
42084;SDS011;27746;52.228;20.890;2024-02-21T11:24:03;35.13;;;14.75;;
42084;SDS011;27746;52.228;20.890;2024-02-21T11:26:30;37.25;;;15.40;;
42084;SDS011;27746;52.228;20.890;2024-02-21T11:28:58;39.15;;;18.02;;
42084;SDS011;27746;52.228;20.890;2024-02-21T11:31:26;36.00;;;17.98;;
42084;SDS011;27746;52.228;20.890;2024-02-21T11:33:53;33.10;;;15.60;;
42084;SDS011;27746;52.228;20.890;2024-02-21T11:36:24;37.58;;;16.15;;
42084;SDS011;27746;52.228;20.890;2024-02-21T11:38:51;36.45;;;14.60;;
42084;SDS011;27746;52.228;20.890;2024-02-21T11:41:19;36.83;;;14.43;;
42084;SDS011;27746;52.228;20.890;2024-02-21T11:43:46;37.08;;;15.93;;
42084;SDS011;27746;52.228;20.890;2024-02-21T11:46:15;31.92;;;16.52;;
42084;SDS011;27746;52.228;20.890;2024-02-21T11:48:42;36.53;;;16.35;;
42084;SDS011;27746;52.228;20.890;2024-02-21T11:51:09;35.15;;;16.23;;
42084;SDS011;27746;52.228;20.890;2024-02-21T11:53:36;33.78;;;16.00;;
42084;SDS011;27746;52.228;20.890;2024-02-21T11:56:03;34.90;;;15.52;;
42084;SDS011;27746;52.228;20.890;2024-02-21T11:58:32;34.83;;;16.35;;
42084;SDS011;27746;52.228;20.890;2024-02-21T12:00:59;39.05;;;16.98;;
42084;SDS011;27746;52.228;20.890;2024-02-21T12:03:27;31.73;;;14.82;;
42084;SDS011;27746;52.228;20.890;2024-02-21T12:05:54;34.28;;;16.83;;
42084;SDS011;27746;52.228;20.890;2024-02-21T12:08:23;37.92;;;16.83;;
42084;SDS011;27746;52.228;20.890;2024-02-21T12:10:50;36.15;;;15.40;;
42084;SDS011;27746;52.228;20.890;2024-02-21T12:13:17;45.50;;;17.73;;
42084;SDS011;27746;52.228;20.890;2024-02-21T12:15:50;41.60;;;17.35;;
42084;SDS011;27746;52.228;20.890;2024-02-21T12:18:17;33.03;;;16.50;;
42084;SDS011;27746;52.228;20.890;2024-02-21T12:20:44;36.00;;;16.15;;
42084;SDS011;27746;52.228;20.890;2024-02-21T12:23:14;38.85;;;16.52;;
42084;SDS011;27746;52.228;20.890;2024-02-21T12:25:42;33.03;;;16.92;;
42084;SDS011;27746;52.228;20.890;2024-02-21T12:28:09;34.35;;;16.70;;
42084;SDS011;27746;52.228;20.890;2024-02-21T12:30:36;37.05;;;17.98;;
42084;SDS011;27746;52.228;20.890;2024-02-21T12:33:06;38.55;;;17.50;;
42084;SDS011;27746;52.228;20.890;2024-02-21T12:35:33;45.28;;;18.65;;
42084;SDS011;27746;52.228;20.890;2024-02-21T12:38:00;35.92;;;16.92;;
42084;SDS011;27746;52.228;20.890;2024-02-21T12:40:27;33.83;;;15.93;;
42084;SDS011;27746;52.228;20.890;2024-02-21T12:42:57;32.85;;;16.50;;
42084;SDS011;27746;52.228;20.890;2024-02-21T12:45:25;36.42;;;17.33;;
42084;SDS011;27746;52.228;20.890;2024-02-21T12:47:51;44.10;;;18.77;;
42084;SDS011;27746;52.228;20.890;2024-02-21T12:50:19;36.30;;;18.40;;
42084;SDS011;27746;52.228;20.890;2024-02-21T12:52:47;41.33;;;18.17;;
42084;SDS011;27746;52.228;20.890;2024-02-21T12:55:15;34.55;;;15.93;;
42084;SDS011;27746;52.228;20.890;2024-02-21T12:57:42;34.28;;;15.80;;
42084;SDS011;27746;52.228;20.890;2024-02-21T13:00:09;40.05;;;17.20;;
42084;SDS011;27746;52.228;20.890;2024-02-21T13:02:37;35.30;;;17.27;;
42084;SDS011;27746;52.228;20.890;2024-02-21T13:05:04;50.78;;;22.45;;
42084;SDS011;27746;52.228;20.890;2024-02-21T13:07:34;37.97;;;15.90;;
42084;SDS011;27746;52.228;20.890;2024-02-21T13:10:01;39.60;;;16.10;;
42084;SDS011;27746;52.228;20.890;2024-02-21T13:12:28;36.90;;;16.65;;
42084;SDS011;27746;52.228;20.890;2024-02-21T13:14:55;35.70;;;17.08;;
42084;SDS011;27746;52.228;20.890;2024-02-21T13:17:22;37.80;;;17.48;;
42084;SDS011;27746;52.228;20.890;2024-02-21T13:19:48;38.88;;;17.52;;
42084;SDS011;27746;52.228;20.890;2024-02-21T13:22:15;28.80;;;16.33;;
42084;SDS011;27746;52.228;20.890;2024-02-21T13:24:43;37.35;;;17.02;;
42084;SDS011;27746;52.228;20.890;2024-02-21T13:27:10;29.10;;;15.05;;
42084;SDS011;27746;52.228;20.890;2024-02-21T13:29:37;30.25;;;14.98;;
42084;SDS011;27746;52.228;20.890;2024-02-21T13:32:04;33.97;;;15.57;;
42084;SDS011;27746;52.228;20.890;2024-02-21T13:34:32;32.50;;;16.60;;
42084;SDS011;27746;52.228;20.890;2024-02-21T13:36:59;26.67;;;15.85;;
42084;SDS011;27746;52.228;20.890;2024-02-21T13:39:26;30.83;;;14.93;;
42084;SDS011;27746;52.228;20.890;2024-02-21T13:41:54;32.03;;;14.95;;
42084;SDS011;27746;52.228;20.890;2024-02-21T13:44:21;32.50;;;14.95;;
42084;SDS011;27746;52.228;20.890;2024-02-21T13:46:48;40.00;;;16.67;;
42084;SDS011;27746;52.228;20.890;2024-02-21T13:49:15;40.30;;;17.20;;
42084;SDS011;27746;52.228;20.890;2024-02-21T13:51:42;31.45;;;14.07;;
42084;SDS011;27746;52.228;20.890;2024-02-21T13:54:10;34.72;;;14.38;;
42084;SDS011;27746;52.228;20.890;2024-02-21T13:56:39;39.30;;;14.20;;
42084;SDS011;27746;52.228;20.890;2024-02-21T13:59:08;30.80;;;12.95;;
42084;SDS011;27746;52.228;20.890;2024-02-21T14:01:35;30.85;;;14.48;;
42084;SDS011;27746;52.228;20.890;2024-02-21T14:04:02;33.83;;;14.05;;
42084;SDS011;27746;52.228;20.890;2024-02-21T14:06:29;28.27;;;12.82;;
42084;SDS011;27746;52.228;20.890;2024-02-21T14:08:56;27.20;;;13.05;;
42084;SDS011;27746;52.228;20.890;2024-02-21T14:11:23;24.60;;;12.60;;
42084;SDS011;27746;52.228;20.890;2024-02-21T14:13:50;28.27;;;13.30;;
42084;SDS011;27746;52.228;20.890;2024-02-21T14:16:18;37.42;;;14.52;;